PWSweather.com
Personal Weather Stations
Station Observations
MBORO100
Brandywood , Murfreesboro, TN 37130

Brandywood Murfreesboro, TN 37130

Lat: 35.908093, Lon: -86.31352

Elevation: 690

Station Type: Davis

www.murfreesboroweather.com

High Low Average
Temperature 60.7°F15.9°C 36.0°F2.2°C 50.4°F10.2°C
Dew Point 53.2°F11.8°C 34.7°F1.5°C 47.2°F8.4°C
Winds 6.9 mph 11.1 kmh Calm Calm 2.0 mph S3.2 kmh S
Wind Gusts 11.5 mph18.5 kmh -- 3.0 mph4.8 kmh
Humidity 97% 75% 89%
Pressure 29.95 in1014.2 mb 29.76 in1007.8 mb -
Precipitation 0.77 in19.6 mm - -
Hour Temp Dew Point Humidity Winds Wind Gusts Pressure Precip Precip Rate Daily Precip Total
12:00 AM 49.9°F9.9°C 47.4°F8.6°C 91% Calm Calm -- 29.92 in1013.2 mb - 0.00 in0.0 mm 0.00 in0.0 mm
12:10 AM 49.7°F9.8°C 47.2°F8.4°C 91% Calm Calm -- 29.92 in1013.2 mb - 0.00 in0.0 mm 0.00 in0.0 mm
12:15 AM 49.5°F9.7°C 47.0°F8.3°C 91% Calm Calm -- 29.93 in1013.5 mb - 0.00 in0.0 mm 0.00 in0.0 mm
12:20 AM 49.5°F9.7°C 47.0°F8.3°C 91% Calm Calm -- 29.92 in1013.2 mb - 0.00 in0.0 mm 0.00 in0.0 mm
12:25 AM 49.6°F9.8°C 47.4°F8.6°C 92% Calm Calm -- 29.92 in1013.2 mb - 0.00 in0.0 mm 0.00 in0.0 mm
12:30 AM 49.8°F9.9°C 47.6°F8.7°C 92% Calm Calm -- 29.92 in1013.2 mb - 0.00 in0.0 mm 0.00 in0.0 mm
12:35 AM 50.1°F10.1°C 47.9°F8.8°C 92% Calm Calm -- 29.92 in1013.2 mb - 0.00 in0.0 mm 0.00 in0.0 mm
12:40 AM 50.1°F10.1°C 47.6°F8.7°C 91% Calm Calm -- 29.91 in1012.9 mb - 0.00 in0.0 mm 0.00 in0.0 mm
12:45 AM 49.9°F9.9°C 47.4°F8.6°C 91% Calm Calm -- 29.92 in1013.2 mb - 0.00 in0.0 mm 0.00 in0.0 mm
12:50 AM 49.6°F9.8°C 47.1°F8.4°C 91% Calm Calm -- 29.91 in1012.9 mb - 0.00 in0.0 mm 0.00 in0.0 mm
12:55 AM 49.4°F9.7°C 46.9°F8.3°C 91% Calm Calm -- 29.92 in1013.2 mb - 0.00 in0.0 mm 0.00 in0.0 mm
01:00 AM 49.4°F9.7°C 46.9°F8.3°C 91% Calm Calm -- 29.92 in1013.2 mb - 0.00 in0.0 mm 0.00 in0.0 mm
01:10 AM 49.6°F9.8°C 47.1°F8.4°C 91% Calm Calm -- 29.92 in1013.2 mb - 0.00 in0.0 mm 0.00 in0.0 mm
01:15 AM 49.8°F9.9°C 47.3°F8.5°C 91% Calm Calm -- 29.91 in1012.9 mb - 0.00 in0.0 mm 0.00 in0.0 mm
01:20 AM 50.0°F10.0°C 47.5°F8.6°C 91% Calm Calm -- 29.91 in1012.9 mb - 0.00 in0.0 mm 0.00 in0.0 mm
01:25 AM 50.2°F10.1°C 47.7°F8.7°C 91% Calm Calm -- 29.90 in1012.5 mb - 0.00 in0.0 mm 0.00 in0.0 mm
01:30 AM 50.3°F10.2°C 47.8°F8.8°C 91% Calm Calm -- 29.90 in1012.5 mb - 0.00 in0.0 mm 0.00 in0.0 mm
01:35 AM 50.5°F10.3°C 48.0°F8.9°C 91% Calm Calm -- 29.90 in1012.5 mb - 0.00 in0.0 mm 0.00 in0.0 mm
01:40 AM 50.6°F10.3°C 48.1°F8.9°C 91% Calm Calm -- 29.90 in1012.5 mb - 0.00 in0.0 mm 0.00 in0.0 mm
01:45 AM 50.6°F10.3°C 48.1°F8.9°C 91% Calm Calm -- 29.91 in1012.9 mb - 0.00 in0.0 mm 0.00 in0.0 mm
01:50 AM 50.8°F10.4°C 48.2°F9.0°C 91% Calm Calm -- 29.91 in1012.9 mb - 0.00 in0.0 mm 0.00 in0.0 mm
01:55 AM 51.1°F10.6°C 48.6°F9.2°C 91% Calm Calm -- 29.92 in1013.2 mb - 0.00 in0.0 mm 0.00 in0.0 mm
02:00 AM 51.4°F10.8°C 48.6°F9.2°C 90% Calm Calm -- 29.92 in1013.2 mb - 0.00 in0.0 mm 0.00 in0.0 mm
02:10 AM 51.7°F10.9°C 48.8°F9.3°C 90% Calm Calm -- 29.91 in1012.9 mb - 0.00 in0.0 mm 0.00 in0.0 mm
02:15 AM 51.7°F10.9°C 48.9°F9.4°C 90% Calm Calm -- 29.91 in1012.9 mb - 0.00 in0.0 mm 0.00 in0.0 mm
02:20 AM 51.8°F11.0°C 48.9°F9.4°C 90% Calm Calm -- 29.91 in1012.9 mb - 0.00 in0.0 mm 0.00 in0.0 mm
02:25 AM 51.8°F11.0°C 49.0°F9.4°C 90% Calm Calm -- 29.91 in1012.9 mb - 0.00 in0.0 mm 0.00 in0.0 mm
02:30 AM 51.7°F10.9°C 48.9°F9.4°C 90% Calm Calm -- 29.92 in1013.2 mb - 0.00 in0.0 mm 0.00 in0.0 mm
02:35 AM 51.7°F10.9°C 48.9°F9.4°C 90% Calm Calm -- 29.92 in1013.2 mb - 0.00 in0.0 mm 0.00 in0.0 mm
02:40 AM 51.8°F11.0°C 49.0°F9.4°C 90% Calm Calm -- 29.92 in1013.2 mb - 0.00 in0.0 mm 0.00 in0.0 mm
02:45 AM 51.8°F11.0°C 48.9°F9.4°C 90% Calm Calm -- 29.91 in1012.9 mb - 0.00 in0.0 mm 0.00 in0.0 mm
02:50 AM 51.7°F10.9°C 48.8°F9.3°C 90% Calm Calm -- 29.92 in1013.2 mb - 0.00 in0.0 mm 0.00 in0.0 mm
02:55 AM 51.6°F10.9°C 48.8°F9.3°C 90% Calm Calm -- 29.92 in1013.2 mb - 0.00 in0.0 mm 0.00 in0.0 mm
03:00 AM 51.6°F10.9°C 48.8°F9.3°C 90% Calm Calm -- 29.92 in1013.2 mb - 0.00 in0.0 mm 0.00 in0.0 mm
03:10 AM 51.5°F10.8°C 48.7°F9.3°C 90% 1.2 mph SSE1.9 kmh SSE 2.3 mph3.7 kmh 29.91 in1012.9 mb - 0.00 in0.0 mm 0.00 in0.0 mm
03:15 AM 51.5°F10.8°C 48.7°F9.3°C 90% Calm Calm -- 29.91 in1012.9 mb - 0.00 in0.0 mm 0.00 in0.0 mm
03:20 AM 51.5°F10.8°C 48.7°F9.3°C 90% Calm Calm -- 29.91 in1012.9 mb - 0.00 in0.0 mm 0.00 in0.0 mm
03:25 AM 51.5°F10.8°C 48.7°F9.3°C 90% Calm Calm -- 29.90 in1012.5 mb - 0.00 in0.0 mm 0.00 in0.0 mm
03:30 AM 51.5°F10.8°C 48.7°F9.3°C 90% Calm Calm -- 29.90 in1012.5 mb - 0.00 in0.0 mm 0.00 in0.0 mm
03:35 AM 51.4°F10.8°C 48.6°F9.2°C 90% Calm Calm -- 29.89 in1012.2 mb - 0.00 in0.0 mm 0.00 in0.0 mm
03:40 AM 51.4°F10.8°C 48.6°F9.2°C 90% Calm Calm -- 29.89 in1012.2 mb - 0.00 in0.0 mm 0.00 in0.0 mm
03:45 AM 51.4°F10.8°C 48.6°F9.2°C 90% Calm Calm -- 29.89 in1012.2 mb - 0.00 in0.0 mm 0.00 in0.0 mm
03:50 AM 51.4°F10.8°C 48.6°F9.2°C 90% Calm Calm -- 29.88 in1011.9 mb - 0.00 in0.0 mm 0.00 in0.0 mm
03:55 AM 51.4°F10.8°C 48.6°F9.2°C 90% Calm Calm -- 29.88 in1011.9 mb - 0.00 in0.0 mm 0.00 in0.0 mm
04:00 AM 51.4°F10.8°C 48.6°F9.2°C 90% 2.3 mph ENE3.7 kmh ENE 3.5 mph5.6 kmh 29.89 in1012.2 mb - 0.00 in0.0 mm 0.00 in0.0 mm
04:10 AM 51.4°F10.8°C 48.6°F9.2°C 90% 1.2 mph ENE1.9 kmh ENE 2.3 mph3.7 kmh 29.89 in1012.2 mb - 0.00 in0.0 mm 0.00 in0.0 mm
04:15 AM 51.4°F10.8°C 48.6°F9.2°C 90% 1.2 mph ENE1.9 kmh ENE 3.5 mph5.6 kmh 29.89 in1012.2 mb - 0.00 in0.0 mm 0.00 in0.0 mm
04:20 AM 51.4°F10.8°C 48.6°F9.2°C 90% 1.2 mph ENE1.9 kmh ENE 2.3 mph3.7 kmh 29.89 in1012.2 mb - 0.00 in0.0 mm 0.00 in0.0 mm
04:25 AM 51.4°F10.8°C 48.5°F9.2°C 90% 1.2 mph ENE1.9 kmh ENE 3.5 mph5.6 kmh 29.89 in1012.2 mb - 0.00 in0.0 mm 0.00 in0.0 mm
04:30 AM 51.4°F10.8°C 48.2°F9.0°C 89% 2.3 mph ENE3.7 kmh ENE 3.5 mph5.6 kmh 29.90 in1012.5 mb - 0.00 in0.0 mm 0.00 in0.0 mm
04:35 AM 51.3°F10.7°C 48.2°F9.0°C 89% 1.2 mph ENE1.9 kmh ENE 2.3 mph3.7 kmh 29.90 in1012.5 mb - 0.00 in0.0 mm 0.00 in0.0 mm
04:40 AM 51.3°F10.7°C 48.2°F9.0°C 89% 2.3 mph ENE3.7 kmh ENE 3.5 mph5.6 kmh 29.90 in1012.5 mb - 0.00 in0.0 mm 0.00 in0.0 mm
04:45 AM 51.3°F10.7°C 48.2°F9.0°C 89% 1.2 mph NE1.9 kmh NE 3.5 mph5.6 kmh 29.91 in1012.9 mb - 0.00 in0.0 mm 0.00 in0.0 mm
04:50 AM 51.2°F10.7°C 48.1°F8.9°C 89% 2.3 mph NE3.7 kmh NE 2.3 mph3.7 kmh 29.91 in1012.9 mb - 0.00 in0.0 mm 0.00 in0.0 mm
04:55 AM 51.2°F10.7°C 48.1°F8.9°C 89% 1.2 mph NE1.9 kmh NE 2.3 mph3.7 kmh 29.90 in1012.5 mb - 0.00 in0.0 mm 0.00 in0.0 mm
05:00 AM 51.1°F10.6°C 48.0°F8.9°C 89% 1.2 mph NE1.9 kmh NE 3.5 mph5.6 kmh 29.90 in1012.5 mb - 0.00 in0.0 mm 0.00 in0.0 mm
05:10 AM 51.0°F10.6°C 47.6°F8.7°C 88% 1.2 mph NE1.9 kmh NE 3.5 mph5.6 kmh 29.89 in1012.2 mb - 0.00 in0.0 mm 0.00 in0.0 mm
05:15 AM 51.0°F10.6°C 47.6°F8.7°C 88% 2.3 mph NE3.7 kmh NE 3.5 mph5.6 kmh 29.90 in1012.5 mb - 0.00 in0.0 mm 0.00 in0.0 mm
05:20 AM 51.0°F10.6°C 47.5°F8.6°C 88% 1.2 mph NE1.9 kmh NE 3.5 mph5.6 kmh 29.90 in1012.5 mb - 0.00 in0.0 mm 0.00 in0.0 mm
05:25 AM 50.9°F10.5°C 47.5°F8.6°C 88% 2.3 mph NE3.7 kmh NE 3.5 mph5.6 kmh 29.90 in1012.5 mb - 0.00 in0.0 mm 0.00 in0.0 mm
05:30 AM 50.8°F10.4°C 47.4°F8.6°C 88% 2.3 mph NE3.7 kmh NE 3.5 mph5.6 kmh 29.90 in1012.5 mb - 0.00 in0.0 mm 0.00 in0.0 mm
05:35 AM 50.8°F10.4°C 47.4°F8.6°C 88% 1.2 mph NE1.9 kmh NE 2.3 mph3.7 kmh 29.91 in1012.9 mb - 0.00 in0.0 mm 0.00 in0.0 mm
05:40 AM 50.8°F10.4°C 47.1°F8.4°C 87% 1.2 mph NE1.9 kmh NE 2.3 mph3.7 kmh 29.91 in1012.9 mb - 0.00 in0.0 mm 0.00 in0.0 mm
05:45 AM 50.9°F10.5°C 47.2°F8.4°C 87% 2.3 mph NE3.7 kmh NE 3.5 mph5.6 kmh 29.91 in1012.9 mb - 0.00 in0.0 mm 0.00 in0.0 mm
05:50 AM 50.9°F10.5°C 47.2°F8.4°C 87% 2.3 mph NE3.7 kmh NE 3.5 mph5.6 kmh 29.91 in1012.9 mb - 0.00 in0.0 mm 0.00 in0.0 mm
05:55 AM 50.9°F10.5°C 47.2°F8.4°C 87% 1.2 mph NE1.9 kmh NE 2.3 mph3.7 kmh 29.91 in1012.9 mb - 0.00 in0.0 mm 0.00 in0.0 mm
06:00 AM 51.0°F10.6°C 47.2°F8.4°C 87% 1.2 mph NE1.9 kmh NE 2.3 mph3.7 kmh 29.91 in1012.9 mb - 0.00 in0.0 mm 0.00 in0.0 mm
06:10 AM 50.9°F10.5°C 47.2°F8.4°C 87% 1.2 mph NE1.9 kmh NE 2.3 mph3.7 kmh 29.91 in1012.9 mb - 0.00 in0.0 mm 0.00 in0.0 mm
06:15 AM 50.9°F10.5°C 47.2°F8.4°C 87% 1.2 mph NE1.9 kmh NE 2.3 mph3.7 kmh 29.91 in1012.9 mb - 0.00 in0.0 mm 0.00 in0.0 mm
06:20 AM 50.9°F10.5°C 47.2°F8.4°C 87% 1.2 mph NE1.9 kmh NE 2.3 mph3.7 kmh 29.91 in1012.9 mb - 0.00 in0.0 mm 0.00 in0.0 mm
06:25 AM 50.8°F10.4°C 46.8°F8.2°C 86% 1.2 mph NE1.9 kmh NE 3.5 mph5.6 kmh 29.90 in1012.5 mb - 0.00 in0.0 mm 0.00 in0.0 mm
06:30 AM 50.8°F10.4°C 46.8°F8.2°C 86% 1.2 mph NE1.9 kmh NE 2.3 mph3.7 kmh 29.90 in1012.5 mb - 0.00 in0.0 mm 0.00 in0.0 mm
06:35 AM 50.8°F10.4°C 47.1°F8.4°C 87% 1.2 mph NE1.9 kmh NE 2.3 mph3.7 kmh 29.90 in1012.5 mb - 0.00 in0.0 mm 0.00 in0.0 mm
06:40 AM 50.7°F10.4°C 46.7°F8.2°C 86% 1.2 mph NE1.9 kmh NE 2.3 mph3.7 kmh 29.90 in1012.5 mb - 0.00 in0.0 mm 0.00 in0.0 mm
06:45 AM 50.7°F10.4°C 46.6°F8.1°C 86% 1.2 mph NE1.9 kmh NE 2.3 mph3.7 kmh 29.90 in1012.5 mb - 0.00 in0.0 mm 0.00 in0.0 mm
06:50 AM 50.6°F10.3°C 46.9°F8.3°C 87% 1.2 mph NE1.9 kmh NE 3.5 mph5.6 kmh 29.89 in1012.2 mb - 0.00 in0.0 mm 0.00 in0.0 mm
06:55 AM 50.6°F10.3°C 46.9°F8.3°C 87% 1.2 mph NE1.9 kmh NE 2.3 mph3.7 kmh 29.89 in1012.2 mb - 0.00 in0.0 mm 0.00 in0.0 mm
07:00 AM 50.6°F10.3°C 46.9°F8.3°C 87% 1.2 mph NE1.9 kmh NE 1.2 mph1.9 kmh 29.88 in1011.9 mb - 0.00 in0.0 mm 0.00 in0.0 mm
07:10 AM 50.5°F10.3°C 47.1°F8.4°C 88% 1.2 mph NE1.9 kmh NE 2.3 mph3.7 kmh 29.89 in1012.2 mb - 0.00 in0.0 mm 0.00 in0.0 mm
07:15 AM 50.5°F10.3°C 47.1°F8.4°C 88% 1.2 mph NE1.9 kmh NE 2.3 mph3.7 kmh 29.89 in1012.2 mb - 0.00 in0.0 mm 0.00 in0.0 mm
07:20 AM 50.6°F10.3°C 47.1°F8.4°C 88% 1.2 mph NE1.9 kmh NE 2.3 mph3.7 kmh 29.89 in1012.2 mb - 0.00 in0.0 mm 0.00 in0.0 mm
07:25 AM 50.6°F10.3°C 46.9°F8.3°C 87% Calm Calm -- 29.89 in1012.2 mb - 0.00 in0.0 mm 0.00 in0.0 mm
07:30 AM 50.6°F10.3°C 46.9°F8.3°C 87% 1.2 mph NE1.9 kmh NE 3.5 mph5.6 kmh 29.89 in1012.2 mb - 0.00 in0.0 mm 0.00 in0.0 mm
07:35 AM 50.6°F10.3°C 46.9°F8.3°C 87% 1.2 mph NE1.9 kmh NE 2.3 mph3.7 kmh 29.89 in1012.2 mb - 0.00 in0.0 mm 0.00 in0.0 mm
07:40 AM 50.7°F10.4°C 47.0°F8.3°C 87% 2.3 mph NE3.7 kmh NE 3.5 mph5.6 kmh 29.89 in1012.2 mb - 0.00 in0.0 mm 0.00 in0.0 mm
07:45 AM 50.7°F10.4°C 46.9°F8.3°C 87% 2.3 mph NE3.7 kmh NE 3.5 mph5.6 kmh 29.89 in1012.2 mb - 0.00 in0.0 mm 0.00 in0.0 mm
07:50 AM 50.7°F10.4°C 47.0°F8.3°C 87% 2.3 mph NE3.7 kmh NE 3.5 mph5.6 kmh 29.89 in1012.2 mb - 0.00 in0.0 mm 0.00 in0.0 mm
07:55 AM 50.7°F10.4°C 47.0°F8.3°C 87% 2.3 mph NE3.7 kmh NE 3.5 mph5.6 kmh 29.89 in1012.2 mb - 0.00 in0.0 mm 0.00 in0.0 mm
08:00 AM 50.7°F10.4°C 46.7°F8.2°C 86% 2.3 mph NE3.7 kmh NE 3.5 mph5.6 kmh 29.89 in1012.2 mb - 0.00 in0.0 mm 0.00 in0.0 mm
08:10 AM 50.7°F10.4°C 46.7°F8.2°C 86% 2.3 mph NE3.7 kmh NE 3.5 mph5.6 kmh 29.89 in1012.2 mb - 0.00 in0.0 mm 0.00 in0.0 mm
08:15 AM 50.7°F10.4°C 46.7°F8.2°C 86% 2.3 mph NE3.7 kmh NE 3.5 mph5.6 kmh 29.89 in1012.2 mb - 0.00 in0.0 mm 0.00 in0.0 mm
08:20 AM 50.8°F10.4°C 47.0°F8.3°C 87% 1.2 mph NE1.9 kmh NE 2.3 mph3.7 kmh 29.89 in1012.2 mb - 0.00 in0.0 mm 0.00 in0.0 mm
08:25 AM 50.8°F10.4°C 47.1°F8.4°C 87% 1.2 mph NE1.9 kmh NE 2.3 mph3.7 kmh 29.88 in1011.9 mb - 0.00 in0.0 mm 0.00 in0.0 mm
08:30 AM 50.8°F10.4°C 46.8°F8.2°C 86% 2.3 mph NE3.7 kmh NE 3.5 mph5.6 kmh 29.88 in1011.9 mb - 0.00 in0.0 mm 0.00 in0.0 mm
08:35 AM 51.0°F10.6°C 47.2°F8.4°C 87% 2.3 mph NE3.7 kmh NE 3.5 mph5.6 kmh 29.88 in1011.9 mb - 0.00 in0.0 mm 0.00 in0.0 mm
08:40 AM 51.0°F10.6°C 47.3°F8.5°C 87% 2.3 mph NE3.7 kmh NE 3.5 mph5.6 kmh 29.88 in1011.9 mb - 0.00 in0.0 mm 0.00 in0.0 mm
08:45 AM 51.2°F10.7°C 47.5°F8.6°C 87% 2.3 mph NE3.7 kmh NE 3.5 mph5.6 kmh 29.89 in1012.2 mb - 0.00 in0.0 mm 0.00 in0.0 mm
08:50 AM 51.3°F10.7°C 47.6°F8.7°C 87% 1.2 mph NE1.9 kmh NE 2.3 mph3.7 kmh 29.88 in1011.9 mb - 0.00 in0.0 mm 0.00 in0.0 mm
08:55 AM 51.5°F10.8°C 47.8°F8.8°C 87% 2.3 mph NE3.7 kmh NE 3.5 mph5.6 kmh 29.89 in1012.2 mb - 0.00 in0.0 mm 0.00 in0.0 mm
09:00 AM 51.8°F11.0°C 47.7°F8.7°C 86% 1.2 mph NE1.9 kmh NE 3.5 mph5.6 kmh 29.89 in1012.2 mb - 0.00 in0.0 mm 0.00 in0.0 mm
09:10 AM 52.0°F11.1°C 47.9°F8.8°C 86% 2.3 mph N3.7 kmh N 3.5 mph5.6 kmh 29.89 in1012.2 mb - 0.00 in0.0 mm 0.00 in0.0 mm
09:15 AM 52.1°F11.2°C 48.3°F9.1°C 87% 1.2 mph N1.9 kmh N 2.3 mph3.7 kmh 29.90 in1012.5 mb - 0.00 in0.0 mm 0.00 in0.0 mm
09:20 AM 52.2°F11.2°C 48.4°F9.1°C 87% 1.2 mph N1.9 kmh N 3.5 mph5.6 kmh 29.90 in1012.5 mb - 0.00 in0.0 mm 0.00 in0.0 mm
09:25 AM 52.3°F11.3°C 48.5°F9.2°C 87% 1.2 mph N1.9 kmh N 2.3 mph3.7 kmh 29.91 in1012.9 mb - 0.00 in0.0 mm 0.00 in0.0 mm
09:30 AM 52.4°F11.3°C 48.6°F9.2°C 87% Calm Calm 2.3 mph3.7 kmh 29.91 in1012.9 mb - 0.00 in0.0 mm 0.00 in0.0 mm
09:35 AM 52.5°F11.4°C 48.7°F9.3°C 87% 1.2 mph NE1.9 kmh NE 2.3 mph3.7 kmh 29.91 in1012.9 mb - 0.00 in0.0 mm 0.00 in0.0 mm
09:40 AM 52.6°F11.4°C 48.8°F9.3°C 87% Calm Calm -- 29.91 in1012.9 mb - 0.00 in0.0 mm 0.00 in0.0 mm
09:45 AM 52.7°F11.5°C 48.9°F9.4°C 87% Calm Calm -- 29.92 in1013.2 mb - 0.00 in0.0 mm 0.00 in0.0 mm
09:50 AM 52.8°F11.6°C 49.3°F9.6°C 88% Calm Calm -- 29.92 in1013.2 mb - 0.00 in0.0 mm 0.00 in0.0 mm
09:55 AM 52.9°F11.6°C 49.1°F9.5°C 87% Calm Calm -- 29.92 in1013.2 mb - 0.00 in0.0 mm 0.00 in0.0 mm
10:00 AM 53.0°F11.7°C 49.2°F9.6°C 87% Calm Calm -- 29.92 in1013.2 mb - 0.00 in0.0 mm 0.00 in0.0 mm
10:10 AM 52.9°F11.6°C 48.8°F9.3°C 86% Calm Calm -- 29.92 in1013.2 mb - 0.00 in0.0 mm 0.00 in0.0 mm
10:15 AM 52.8°F11.6°C 48.7°F9.3°C 86% Calm Calm -- 29.92 in1013.2 mb - 0.00 in0.0 mm 0.00 in0.0 mm
10:20 AM 52.7°F11.5°C 48.6°F9.2°C 86% Calm Calm -- 29.92 in1013.2 mb - 0.00 in0.0 mm 0.00 in0.0 mm
10:25 AM 52.8°F11.6°C 48.7°F9.3°C 86% Calm Calm -- 29.91 in1012.9 mb - 0.00 in0.0 mm 0.00 in0.0 mm
10:30 AM 52.9°F11.6°C 49.1°F9.5°C 87% Calm Calm -- 29.92 in1013.2 mb - 0.00 in0.0 mm 0.00 in0.0 mm
10:35 AM 52.8°F11.6°C 48.7°F9.3°C 86% Calm Calm -- 29.91 in1012.9 mb - 0.00 in0.0 mm 0.00 in0.0 mm
10:40 AM 52.8°F11.6°C 48.7°F9.3°C 86% Calm Calm -- 29.91 in1012.9 mb - 0.00 in0.0 mm 0.00 in0.0 mm
10:45 AM 52.9°F11.6°C 48.8°F9.3°C 86% 2.3 mph NE3.7 kmh NE 3.5 mph5.6 kmh 29.91 in1012.9 mb - 0.00 in0.0 mm 0.00 in0.0 mm
10:50 AM 53.0°F11.7°C 48.9°F9.4°C 86% 2.3 mph NE3.7 kmh NE 3.5 mph5.6 kmh 29.91 in1012.9 mb - 0.00 in0.0 mm 0.00 in0.0 mm
10:55 AM 53.1°F11.7°C 49.0°F9.4°C 86% 1.2 mph ESE1.9 kmh ESE 2.3 mph3.7 kmh 29.91 in1012.9 mb - 0.00 in0.0 mm 0.00 in0.0 mm
11:00 AM 53.2°F11.8°C 49.1°F9.5°C 86% 1.2 mph NE1.9 kmh NE 1.2 mph1.9 kmh 29.92 in1013.2 mb - 0.00 in0.0 mm 0.00 in0.0 mm
11:10 AM 53.3°F11.8°C 48.9°F9.4°C 85% 2.3 mph NNE3.7 kmh NNE 3.5 mph5.6 kmh 29.91 in1012.9 mb - 0.00 in0.0 mm 0.00 in0.0 mm
11:15 AM 53.2°F11.8°C 48.8°F9.3°C 85% Calm Calm 1.2 mph1.9 kmh 29.91 in1012.9 mb - 0.00 in0.0 mm 0.00 in0.0 mm
11:20 AM 53.5°F11.9°C 49.1°F9.5°C 85% 2.3 mph NE3.7 kmh NE 3.5 mph5.6 kmh 29.91 in1012.9 mb - 0.00 in0.0 mm 0.00 in0.0 mm
11:25 AM 53.4°F11.9°C 49.0°F9.4°C 85% 1.2 mph NE1.9 kmh NE 2.3 mph3.7 kmh 29.91 in1012.9 mb - 0.00 in0.0 mm 0.00 in0.0 mm
11:30 AM 53.7°F12.1°C 49.3°F9.6°C 85% 1.2 mph NE1.9 kmh NE 3.5 mph5.6 kmh 29.91 in1012.9 mb - 0.00 in0.0 mm 0.00 in0.0 mm
11:35 AM 54.0°F12.2°C 49.2°F9.6°C 84% 1.2 mph NE1.9 kmh NE 3.5 mph5.6 kmh 29.90 in1012.5 mb - 0.00 in0.0 mm 0.00 in0.0 mm
11:40 AM 54.1°F12.3°C 49.4°F9.7°C 84% 1.2 mph NE1.9 kmh NE 3.5 mph5.6 kmh 29.91 in1012.9 mb - 0.00 in0.0 mm 0.00 in0.0 mm
11:45 AM 54.6°F12.6°C 49.8°F9.9°C 84% 1.2 mph NE1.9 kmh NE 1.2 mph1.9 kmh 29.90 in1012.5 mb - 0.00 in0.0 mm 0.00 in0.0 mm
11:50 AM 54.8°F12.7°C 49.7°F9.8°C 83% 1.2 mph NE1.9 kmh NE 3.5 mph5.6 kmh 29.90 in1012.5 mb - 0.00 in0.0 mm 0.00 in0.0 mm
11:55 AM 54.8°F12.7°C 49.7°F9.8°C 83% 1.2 mph NE1.9 kmh NE 2.3 mph3.7 kmh 29.90 in1012.5 mb - 0.00 in0.0 mm 0.00 in0.0 mm
12:00 PM 55.0°F12.8°C 49.9°F9.9°C 83% 1.2 mph NE1.9 kmh NE 2.3 mph3.7 kmh 29.90 in1012.5 mb - 0.00 in0.0 mm 0.00 in0.0 mm
12:10 PM 55.3°F12.9°C 49.9°F9.9°C 82% 1.2 mph NE1.9 kmh NE 1.2 mph1.9 kmh 29.89 in1012.2 mb - 0.00 in0.0 mm 0.00 in0.0 mm
12:15 PM 55.6°F13.1°C 50.2°F10.1°C 82% 2.3 mph ENE3.7 kmh ENE 3.5 mph5.6 kmh 29.89 in1012.2 mb - 0.00 in0.0 mm 0.00 in0.0 mm
12:20 PM 55.5°F13.1°C 50.1°F10.1°C 82% 1.2 mph E1.9 kmh E 2.3 mph3.7 kmh 29.90 in1012.5 mb - 0.00 in0.0 mm 0.00 in0.0 mm
12:25 PM 55.9°F13.3°C 50.2°F10.1°C 81% 1.2 mph N1.9 kmh N 2.3 mph3.7 kmh 29.89 in1012.2 mb - 0.00 in0.0 mm 0.00 in0.0 mm
12:30 PM 56.3°F13.5°C 50.8°F10.4°C 82% 1.2 mph N1.9 kmh N 2.3 mph3.7 kmh 29.89 in1012.2 mb - 0.00 in0.0 mm 0.00 in0.0 mm
12:35 PM 56.7°F13.7°C 50.6°F10.3°C 80% 1.2 mph NE1.9 kmh NE 3.5 mph5.6 kmh 29.88 in1011.9 mb - 0.00 in0.0 mm 0.00 in0.0 mm
12:40 PM 57.1°F13.9°C 51.0°F10.6°C 80% 1.2 mph NE1.9 kmh NE 3.5 mph5.6 kmh 29.88 in1011.9 mb - 0.00 in0.0 mm 0.00 in0.0 mm
12:45 PM 57.4°F14.1°C 51.3°F10.7°C 80% Calm Calm 1.2 mph1.9 kmh 29.88 in1011.9 mb - 0.00 in0.0 mm 0.00 in0.0 mm
12:50 PM 57.7°F14.3°C 51.3°F10.7°C 79% 1.2 mph NE1.9 kmh NE 2.3 mph3.7 kmh 29.88 in1011.9 mb - 0.00 in0.0 mm 0.00 in0.0 mm
12:55 PM 57.8°F14.3°C 51.3°F10.7°C 79% Calm Calm 1.2 mph1.9 kmh 29.87 in1011.5 mb - 0.00 in0.0 mm 0.00 in0.0 mm
01:00 PM 57.9°F14.4°C 51.4°F10.8°C 79% 1.2 mph NE1.9 kmh NE 2.3 mph3.7 kmh 29.86 in1011.2 mb - 0.00 in0.0 mm 0.00 in0.0 mm
01:10 PM 58.6°F14.8°C 51.7°F10.9°C 78% 1.2 mph NE1.9 kmh NE 3.5 mph5.6 kmh 29.86 in1011.2 mb - 0.00 in0.0 mm 0.00 in0.0 mm
01:15 PM 58.6°F14.8°C 51.8°F11.0°C 78% Calm Calm -- 29.86 in1011.2 mb - 0.00 in0.0 mm 0.00 in0.0 mm
01:20 PM 58.6°F14.8°C 51.8°F11.0°C 78% Calm Calm 3.5 mph5.6 kmh 29.85 in1010.8 mb - 0.00 in0.0 mm 0.00 in0.0 mm
01:25 PM 59.0°F15.0°C 51.8°F11.0°C 77% 1.2 mph NE1.9 kmh NE 1.2 mph1.9 kmh 29.84 in1010.5 mb - 0.00 in0.0 mm 0.00 in0.0 mm
01:30 PM 59.3°F15.2°C 52.1°F11.2°C 77% 1.2 mph NE1.9 kmh NE 2.3 mph3.7 kmh 29.84 in1010.5 mb - 0.00 in0.0 mm 0.00 in0.0 mm
01:35 PM 59.3°F15.2°C 52.4°F11.3°C 78% 1.2 mph SSE1.9 kmh SSE 2.3 mph3.7 kmh 29.83 in1010.2 mb - 0.00 in0.0 mm 0.00 in0.0 mm
01:40 PM 59.5°F15.3°C 52.3°F11.3°C 77% Calm Calm 2.3 mph3.7 kmh 29.83 in1010.2 mb - 0.00 in0.0 mm 0.00 in0.0 mm
01:45 PM 59.3°F15.2°C 52.1°F11.2°C 77% Calm Calm 1.2 mph1.9 kmh 29.83 in1010.2 mb - 0.00 in0.0 mm 0.00 in0.0 mm
01:50 PM 59.4°F15.2°C 52.2°F11.2°C 77% Calm Calm 2.3 mph3.7 kmh 29.82 in1009.8 mb - 0.00 in0.0 mm 0.00 in0.0 mm
01:55 PM 59.5°F15.3°C 52.3°F11.3°C 77% Calm Calm 1.2 mph1.9 kmh 29.82 in1009.8 mb - 0.00 in0.0 mm 0.00 in0.0 mm
02:00 PM 59.8°F15.4°C 52.6°F11.4°C 77% Calm Calm 1.2 mph1.9 kmh 29.82 in1009.8 mb - 0.00 in0.0 mm 0.00 in0.0 mm
02:10 PM 59.8°F15.4°C 52.6°F11.4°C 77% Calm Calm 2.3 mph3.7 kmh 29.82 in1009.8 mb - 0.00 in0.0 mm 0.00 in0.0 mm
02:15 PM 59.9°F15.5°C 52.7°F11.5°C 77% 1.2 mph W1.9 kmh W 2.3 mph3.7 kmh 29.82 in1009.8 mb - 0.00 in0.0 mm 0.00 in0.0 mm
02:20 PM 60.1°F15.6°C 52.5°F11.4°C 76% Calm Calm -- 29.81 in1009.5 mb - 0.00 in0.0 mm 0.00 in0.0 mm
02:25 PM 60.5°F15.8°C 52.9°F11.6°C 76% 1.2 mph W1.9 kmh W 3.5 mph5.6 kmh 29.81 in1009.5 mb - 0.00 in0.0 mm 0.00 in0.0 mm
02:30 PM 60.6°F15.9°C 52.6°F11.4°C 75% 2.3 mph WNW3.7 kmh WNW 2.3 mph3.7 kmh 29.81 in1009.5 mb - 0.00 in0.0 mm 0.00 in0.0 mm
02:35 PM 60.4°F15.8°C 52.8°F11.6°C 76% Calm Calm -- 29.81 in1009.5 mb - 0.00 in0.0 mm 0.00 in0.0 mm
02:40 PM 60.7°F15.9°C 53.1°F11.7°C 76% Calm Calm 1.2 mph1.9 kmh 29.81 in1009.5 mb - 0.00 in0.0 mm 0.00 in0.0 mm
02:45 PM 60.4°F15.8°C 53.2°F11.8°C 77% 2.3 mph WNW3.7 kmh WNW 3.5 mph5.6 kmh 29.81 in1009.5 mb - 0.00 in0.0 mm 0.00 in0.0 mm
02:50 PM 59.8°F15.4°C 52.6°F11.4°C 77% 1.2 mph WNW1.9 kmh WNW 2.3 mph3.7 kmh 29.81 in1009.5 mb - 0.00 in0.0 mm 0.00 in0.0 mm
02:55 PM 59.7°F15.4°C 52.8°F11.6°C 78% 1.2 mph WNW1.9 kmh WNW 3.5 mph5.6 kmh 29.80 in1009.1 mb - 0.00 in0.0 mm 0.00 in0.0 mm
03:00 PM 59.5°F15.3°C 52.6°F11.4°C 78% 2.3 mph W3.7 kmh W 2.3 mph3.7 kmh 29.80 in1009.1 mb - 0.00 in0.0 mm 0.00 in0.0 mm
03:10 PM 59.2°F15.1°C 52.3°F11.3°C 78% 2.3 mph WNW3.7 kmh WNW 3.5 mph5.6 kmh 29.80 in1009.1 mb - 0.00 in0.0 mm 0.00 in0.0 mm
03:15 PM 59.0°F15.0°C 52.5°F11.4°C 79% 2.3 mph WNW3.7 kmh WNW 3.5 mph5.6 kmh 29.79 in1008.8 mb - 0.00 in0.0 mm 0.00 in0.0 mm
03:20 PM 58.7°F14.8°C 52.2°F11.2°C 79% 2.3 mph WNW3.7 kmh WNW 3.5 mph5.6 kmh 29.79 in1008.8 mb - 0.00 in0.0 mm 0.00 in0.0 mm
03:25 PM 58.6°F14.8°C 52.4°F11.3°C 80% 2.3 mph NW3.7 kmh NW 3.5 mph5.6 kmh 29.80 in1009.1 mb - 0.00 in0.0 mm 0.00 in0.0 mm
03:30 PM 58.1°F14.5°C 52.0°F11.1°C 80% 2.3 mph WNW3.7 kmh WNW 3.5 mph5.6 kmh 29.80 in1009.1 mb - 0.00 in0.0 mm 0.00 in0.0 mm
03:35 PM 57.6°F14.2°C 51.8°F11.0°C 81% 1.2 mph NW1.9 kmh NW 2.3 mph3.7 kmh 29.79 in1008.8 mb - 0.00 in0.0 mm 0.00 in0.0 mm
03:40 PM 57.2°F14.0°C 51.7°F10.9°C 82% 1.2 mph NW1.9 kmh NW 1.2 mph1.9 kmh 29.79 in1008.8 mb - 0.00 in0.0 mm 0.00 in0.0 mm
03:45 PM 57.0°F13.9°C 51.9°F11.1°C 83% Calm Calm -- 29.79 in1008.8 mb - 0.00 in0.0 mm 0.00 in0.0 mm
03:50 PM 56.8°F13.8°C 52.0°F11.1°C 84% 1.2 mph NW1.9 kmh NW 3.5 mph5.6 kmh 29.79 in1008.8 mb - 0.00 in0.0 mm 0.00 in0.0 mm
03:55 PM 56.5°F13.6°C 51.8°F11.0°C 84% 2.3 mph WNW3.7 kmh WNW 2.3 mph3.7 kmh 29.79 in1008.8 mb - 0.00 in0.0 mm 0.00 in0.0 mm
04:00 PM 56.2°F13.4°C 51.8°F11.0°C 85% 1.2 mph W1.9 kmh W 2.3 mph3.7 kmh 29.79 in1008.8 mb - 0.00 in0.0 mm 0.00 in0.0 mm
04:10 PM 55.7°F13.2°C 51.6°F10.9°C 86% 2.3 mph WNW3.7 kmh WNW 3.5 mph5.6 kmh 29.79 in1008.8 mb - 0.00 in0.0 mm 0.00 in0.0 mm
04:15 PM 55.2°F12.9°C 51.4°F10.8°C 87% 3.5 mph NW5.6 kmh NW 3.5 mph5.6 kmh 29.79 in1008.8 mb - 0.00 in0.0 mm 0.00 in0.0 mm
04:20 PM 54.5°F12.5°C 51.3°F10.7°C 89% 1.2 mph NW1.9 kmh NW 2.3 mph3.7 kmh 29.79 in1008.8 mb - 0.01 in0.3 mm 0.01 in0.3 mm
04:25 PM 53.8°F12.1°C 51.0°F10.6°C 90% 2.3 mph NW3.7 kmh NW 3.5 mph5.6 kmh 29.79 in1008.8 mb - 0.02 in0.5 mm 0.02 in0.5 mm
04:30 PM 53.1°F11.7°C 50.6°F10.3°C 91% Calm Calm 2.3 mph3.7 kmh 29.79 in1008.8 mb - 0.00 in0.0 mm 0.02 in0.5 mm
04:35 PM 52.7°F11.5°C 50.4°F10.2°C 92% 2.3 mph NW3.7 kmh NW 3.5 mph5.6 kmh 29.78 in1008.5 mb - 0.00 in0.0 mm 0.02 in0.5 mm
04:40 PM 52.4°F11.3°C 50.4°F10.2°C 93% 2.3 mph NW3.7 kmh NW 3.5 mph5.6 kmh 29.79 in1008.8 mb - 0.00 in0.0 mm 0.02 in0.5 mm
04:45 PM 52.2°F11.2°C 50.5°F10.3°C 94% 1.2 mph NW1.9 kmh NW 2.3 mph3.7 kmh 29.78 in1008.5 mb - 0.00 in0.0 mm 0.02 in0.5 mm
04:50 PM 52.1°F11.2°C 50.4°F10.2°C 94% 2.3 mph WNW3.7 kmh WNW 3.5 mph5.6 kmh 29.78 in1008.5 mb - 0.00 in0.0 mm 0.02 in0.5 mm
04:55 PM 52.1°F11.2°C 50.4°F10.2°C 94% 1.2 mph WNW1.9 kmh WNW 3.5 mph5.6 kmh 29.78 in1008.5 mb - 0.00 in0.0 mm 0.02 in0.5 mm
05:00 PM 52.0°F11.1°C 50.6°F10.3°C 95% 1.2 mph N1.9 kmh N 3.5 mph5.6 kmh 29.78 in1008.5 mb - 0.01 in0.3 mm 0.03 in0.8 mm
05:10 PM 52.1°F11.2°C 50.7°F10.4°C 95% Calm Calm -- 29.77 in1008.1 mb - 0.01 in0.3 mm 0.03 in0.8 mm
05:15 PM 52.1°F11.2°C 50.7°F10.4°C 95% 1.2 mph NNE1.9 kmh NNE 2.3 mph3.7 kmh 29.77 in1008.1 mb - 0.00 in0.0 mm 0.03 in0.8 mm
05:20 PM 52.1°F11.2°C 50.7°F10.4°C 95% 2.3 mph NNE3.7 kmh NNE 2.3 mph3.7 kmh 29.77 in1008.1 mb - 0.00 in0.0 mm 0.03 in0.8 mm
05:25 PM 52.1°F11.2°C 51.0°F10.6°C 96% 2.3 mph NE3.7 kmh NE 3.5 mph5.6 kmh 29.77 in1008.1 mb - 0.02 in0.5 mm 0.05 in1.3 mm
05:30 PM 51.9°F11.1°C 50.5°F10.3°C 95% 2.3 mph NW3.7 kmh NW 3.5 mph5.6 kmh 29.77 in1008.1 mb - 0.01 in0.3 mm 0.05 in1.3 mm
05:35 PM 51.7°F10.9°C 50.6°F10.3°C 96% 2.3 mph NW3.7 kmh NW 3.5 mph5.6 kmh 29.78 in1008.5 mb - 0.04 in1.0 mm 0.09 in2.3 mm
05:40 PM 51.5°F10.8°C 50.4°F10.2°C 96% 2.3 mph NE3.7 kmh NE 3.5 mph5.6 kmh 29.76 in1007.8 mb - 0.12 in3.0 mm 0.19 in4.8 mm
05:45 PM 51.4°F10.8°C 50.3°F10.2°C 96% 2.3 mph NE3.7 kmh NE 3.5 mph5.6 kmh 29.77 in1008.1 mb - 0.05 in1.3 mm 0.23 in5.8 mm
05:50 PM 51.4°F10.8°C 50.3°F10.2°C 96% Calm Calm -- 29.77 in1008.1 mb - 0.02 in0.5 mm 0.24 in6.1 mm
05:55 PM 51.5°F10.8°C 50.4°F10.2°C 96% 1.2 mph E1.9 kmh E 1.2 mph1.9 kmh 29.77 in1008.1 mb - 0.01 in0.3 mm 0.24 in6.1 mm
06:00 PM 51.5°F10.8°C 50.4°F10.2°C 96% 1.2 mph SSE1.9 kmh SSE 3.5 mph5.6 kmh 29.78 in1008.5 mb - 0.00 in0.0 mm 0.24 in6.1 mm
06:10 PM 51.5°F10.8°C 50.4°F10.2°C 96% Calm Calm -- 29.78 in1008.5 mb - 0.00 in0.0 mm 0.24 in6.1 mm
06:15 PM 51.3°F10.7°C 50.2°F10.1°C 96% Calm Calm -- 29.78 in1008.5 mb - 0.00 in0.0 mm 0.24 in6.1 mm
06:20 PM 51.3°F10.7°C 50.2°F10.1°C 96% Calm Calm -- 29.77 in1008.1 mb - 0.01 in0.3 mm 0.25 in6.4 mm
06:25 PM 51.2°F10.7°C 50.4°F10.2°C 97% Calm Calm -- 29.78 in1008.5 mb - 0.01 in0.3 mm 0.26 in6.6 mm
06:30 PM 51.1°F10.6°C 50.0°F10.0°C 96% Calm Calm -- 29.78 in1008.5 mb - 0.00 in0.0 mm 0.26 in6.6 mm
06:35 PM 51.1°F10.6°C 50.0°F10.0°C 96% Calm Calm 2.3 mph3.7 kmh 29.78 in1008.5 mb - 0.01 in0.3 mm 0.27 in6.9 mm
06:40 PM 51.1°F10.6°C 50.0°F10.0°C 96% 2.3 mph NNW3.7 kmh NNW 3.5 mph5.6 kmh 29.78 in1008.5 mb - 0.01 in0.3 mm 0.28 in7.1 mm
06:45 PM 50.8°F10.4°C 49.7°F9.8°C 96% 2.3 mph NW3.7 kmh NW 3.5 mph5.6 kmh 29.78 in1008.5 mb - 0.01 in0.3 mm 0.29 in7.4 mm
06:50 PM 50.5°F10.3°C 49.4°F9.7°C 96% 3.5 mph NW5.6 kmh NW 4.6 mph7.4 kmh 29.79 in1008.8 mb - 0.01 in0.3 mm 0.29 in7.4 mm
06:55 PM 50.1°F10.1°C 49.1°F9.5°C 96% 1.2 mph NW1.9 kmh NW 2.3 mph3.7 kmh 29.79 in1008.8 mb - 0.05 in1.3 mm 0.34 in8.6 mm
07:00 PM 49.8°F9.9°C 48.7°F9.3°C 96% 3.5 mph WNW5.6 kmh WNW 4.6 mph7.4 kmh 29.80 in1009.1 mb - 0.05 in1.3 mm 0.38 in9.7 mm
07:10 PM 49.5°F9.7°C 48.7°F9.3°C 97% 3.5 mph NW5.6 kmh NW 6.9 mph11.1 kmh 29.81 in1009.5 mb - 0.09 in2.3 mm 0.47 in11.9 mm
07:15 PM 49.4°F9.7°C 48.6°F9.2°C 97% 2.3 mph NW3.7 kmh NW 8.1 mph13.0 kmh 29.82 in1009.8 mb - 0.06 in1.5 mm 0.52 in13.2 mm
07:20 PM 49.2°F9.6°C 48.1°F8.9°C 96% 4.6 mph NW7.4 kmh NW 5.8 mph9.3 kmh 29.82 in1009.8 mb - 0.04 in1.0 mm 0.54 in13.7 mm
07:25 PM 48.9°F9.4°C 47.8°F8.8°C 96% 4.6 mph NW7.4 kmh NW 8.1 mph13.0 kmh 29.82 in1009.8 mb - 0.02 in0.5 mm 0.56 in14.2 mm
07:30 PM 48.8°F9.3°C 48.0°F8.9°C 97% 4.6 mph NW7.4 kmh NW 6.9 mph11.1 kmh 29.83 in1010.2 mb - 0.02 in0.5 mm 0.58 in14.7 mm
07:35 PM 48.4°F9.1°C 47.4°F8.6°C 96% 6.9 mph NW11.1 kmh NW 9.2 mph14.8 kmh 29.84 in1010.5 mb - 0.02 in0.5 mm 0.60 in15.2 mm
07:40 PM 47.8°F8.8°C 46.7°F8.2°C 96% 5.8 mph NW9.3 kmh NW 9.2 mph14.8 kmh 29.84 in1010.5 mb - 0.02 in0.5 mm 0.62 in15.7 mm
07:45 PM 47.2°F8.4°C 46.2°F7.9°C 96% 3.5 mph NNW5.6 kmh NNW 8.1 mph13.0 kmh 29.84 in1010.5 mb - 0.02 in0.5 mm 0.64 in16.3 mm
07:50 PM 46.9°F8.3°C 45.8°F7.7°C 96% 4.6 mph NW7.4 kmh NW 5.8 mph9.3 kmh 29.84 in1010.5 mb - 0.03 in0.8 mm 0.67 in17.0 mm
07:55 PM 46.7°F8.2°C 45.6°F7.6°C 96% 4.6 mph NW7.4 kmh NW 4.6 mph7.4 kmh 29.85 in1010.8 mb - 0.03 in0.8 mm 0.70 in17.8 mm
08:00 PM 46.5°F8.1°C 45.4°F7.4°C 96% 3.5 mph N5.6 kmh N 3.5 mph5.6 kmh 29.84 in1010.5 mb - 0.01 in0.3 mm 0.71 in18.0 mm
08:10 PM 45.9°F7.7°C 44.8°F7.1°C 96% 3.5 mph NNW5.6 kmh NNW 4.6 mph7.4 kmh 29.85 in1010.8 mb - 0.04 in1.0 mm 0.75 in19.1 mm
08:15 PM 45.8°F7.7°C 44.7°F7.1°C 96% 3.5 mph NW5.6 kmh NW 4.6 mph7.4 kmh 29.85 in1010.8 mb - 0.02 in0.5 mm 0.76 in19.3 mm
08:20 PM 45.6°F7.6°C 44.5°F6.9°C 96% 3.5 mph NW5.6 kmh NW 4.6 mph7.4 kmh 29.86 in1011.2 mb - 0.00 in0.0 mm 0.76 in19.3 mm
08:25 PM 45.3°F7.4°C 44.2°F6.8°C 96% 2.3 mph NNW3.7 kmh NNW 4.6 mph7.4 kmh 29.85 in1010.8 mb - 0.00 in0.0 mm 0.76 in19.3 mm
08:30 PM 45.0°F7.2°C 43.9°F6.6°C 96% 2.3 mph N3.7 kmh N 3.5 mph5.6 kmh 29.85 in1010.8 mb - 0.00 in0.0 mm 0.76 in19.3 mm
08:35 PM 44.6°F7.0°C 43.6°F6.4°C 96% 2.3 mph N3.7 kmh N 3.5 mph5.6 kmh 29.84 in1010.5 mb - 0.00 in0.0 mm 0.76 in19.3 mm
08:40 PM 44.4°F6.9°C 43.4°F6.3°C 96% 3.5 mph N5.6 kmh N 3.5 mph5.6 kmh 29.85 in1010.8 mb - 0.00 in0.0 mm 0.76 in19.3 mm
08:45 PM 44.2°F6.8°C 43.1°F6.2°C 96% 2.3 mph NNW3.7 kmh NNW 3.5 mph5.6 kmh 29.86 in1011.2 mb - 0.00 in0.0 mm 0.76 in19.3 mm
08:50 PM 44.1°F6.7°C 43.0°F6.1°C 96% 2.3 mph NW3.7 kmh NW 3.5 mph5.6 kmh 29.86 in1011.2 mb - 0.00 in0.0 mm 0.76 in19.3 mm
08:55 PM 44.0°F6.7°C 42.9°F6.1°C 96% 3.5 mph NW5.6 kmh NW 5.8 mph9.3 kmh 29.86 in1011.2 mb - 0.00 in0.0 mm 0.76 in19.3 mm
09:00 PM 43.9°F6.6°C 42.8°F6.0°C 96% 3.5 mph NNW5.6 kmh NNW 4.6 mph7.4 kmh 29.86 in1011.2 mb - 0.00 in0.0 mm 0.76 in19.3 mm
09:10 PM 43.7°F6.5°C 42.6°F5.9°C 96% 2.3 mph N3.7 kmh N 4.6 mph7.4 kmh 29.85 in1010.8 mb - 0.00 in0.0 mm 0.76 in19.3 mm
09:15 PM 43.6°F6.4°C 42.5°F5.8°C 96% 2.3 mph NNW3.7 kmh NNW 3.5 mph5.6 kmh 29.86 in1011.2 mb - 0.00 in0.0 mm 0.76 in19.3 mm
09:20 PM 43.6°F6.4°C 42.5°F5.8°C 96% 1.2 mph NNE1.9 kmh NNE 2.3 mph3.7 kmh 29.86 in1011.2 mb - 0.00 in0.0 mm 0.76 in19.3 mm
09:25 PM 43.5°F6.4°C 42.2°F5.7°C 95% 2.3 mph NNW3.7 kmh NNW 3.5 mph5.6 kmh 29.87 in1011.5 mb - 0.00 in0.0 mm 0.76 in19.3 mm
09:30 PM 43.4°F6.3°C 42.1°F5.6°C 95% 3.5 mph NW5.6 kmh NW 3.5 mph5.6 kmh 29.88 in1011.9 mb - 0.00 in0.0 mm 0.76 in19.3 mm
09:35 PM 43.3°F6.3°C 42.0°F5.6°C 95% 3.5 mph NW5.6 kmh NW 4.6 mph7.4 kmh 29.89 in1012.2 mb - 0.00 in0.0 mm 0.76 in19.3 mm
09:40 PM 43.1°F6.2°C 41.8°F5.4°C 95% 3.5 mph NW5.6 kmh NW 3.5 mph5.6 kmh 29.89 in1012.2 mb - 0.00 in0.0 mm 0.76 in19.3 mm
09:45 PM 43.0°F6.1°C 41.7°F5.4°C 95% 3.5 mph NW5.6 kmh NW 4.6 mph7.4 kmh 29.89 in1012.2 mb - 0.00 in0.0 mm 0.76 in19.3 mm
09:50 PM 42.7°F5.9°C 41.3°F5.2°C 95% 3.5 mph NW5.6 kmh NW 3.5 mph5.6 kmh 29.89 in1012.2 mb - 0.00 in0.0 mm 0.76 in19.3 mm
09:55 PM 42.2°F5.7°C 40.9°F4.9°C 95% 3.5 mph NW5.6 kmh NW 8.1 mph13.0 kmh 29.90 in1012.5 mb - 0.00 in0.0 mm 0.76 in19.3 mm
10:00 PM 41.8°F5.4°C 40.4°F4.7°C 95% 4.6 mph NW7.4 kmh NW 11.5 mph18.5 kmh 29.90 in1012.5 mb - 0.00 in0.0 mm 0.76 in19.3 mm
10:10 PM 40.7°F4.8°C 39.2°F4.0°C 94% 4.6 mph NW7.4 kmh NW 5.8 mph9.3 kmh 29.91 in1012.9 mb - 0.00 in0.0 mm 0.76 in19.3 mm
10:15 PM 40.4°F4.7°C 38.8°F3.8°C 94% 3.5 mph NW5.6 kmh NW 4.6 mph7.4 kmh 29.91 in1012.9 mb - 0.00 in0.0 mm 0.76 in19.3 mm
10:20 PM 40.1°F4.5°C 38.5°F3.6°C 94% 3.5 mph NW5.6 kmh NW 3.5 mph5.6 kmh 29.91 in1012.9 mb - 0.00 in0.0 mm 0.76 in19.3 mm
10:25 PM 39.9°F4.4°C 38.3°F3.5°C 94% 3.5 mph NW5.6 kmh NW 6.9 mph11.1 kmh 29.91 in1012.9 mb - 0.00 in0.0 mm 0.76 in19.3 mm
10:30 PM 39.7°F4.3°C 38.1°F3.4°C 94% 3.5 mph NW5.6 kmh NW 5.8 mph9.3 kmh 29.91 in1012.9 mb - 0.00 in0.0 mm 0.76 in19.3 mm
10:35 PM 39.5°F4.2°C 37.9°F3.3°C 94% 3.5 mph NW5.6 kmh NW 4.6 mph7.4 kmh 29.91 in1012.9 mb - 0.00 in0.0 mm 0.76 in19.3 mm
10:40 PM 39.5°F4.2°C 38.2°F3.4°C 95% 2.3 mph NW3.7 kmh NW 4.6 mph7.4 kmh 29.92 in1013.2 mb - 0.00 in0.0 mm 0.76 in19.3 mm
10:45 PM 39.4°F4.1°C 38.1°F3.4°C 95% 2.3 mph NW3.7 kmh NW 3.5 mph5.6 kmh 29.92 in1013.2 mb - 0.00 in0.0 mm 0.76 in19.3 mm
10:50 PM 39.3°F4.1°C 38.0°F3.3°C 95% 3.5 mph NW5.6 kmh NW 4.6 mph7.4 kmh 29.92 in1013.2 mb - 0.00 in0.0 mm 0.76 in19.3 mm
10:55 PM 39.2°F4.0°C 37.9°F3.3°C 95% 3.5 mph NW5.6 kmh NW 9.2 mph14.8 kmh 29.92 in1013.2 mb - 0.00 in0.0 mm 0.76 in19.3 mm
11:00 PM 39.1°F3.9°C 37.7°F3.2°C 95% 2.3 mph NW3.7 kmh NW 3.5 mph5.6 kmh 29.93 in1013.5 mb - 0.00 in0.0 mm 0.76 in19.3 mm
11:10 PM 38.9°F3.8°C 37.6°F3.1°C 95% 2.3 mph NW3.7 kmh NW 3.5 mph5.6 kmh 29.93 in1013.5 mb - 0.00 in0.0 mm 0.76 in19.3 mm
11:15 PM 38.8°F3.8°C 37.5°F3.1°C 95% 2.3 mph NNW3.7 kmh NNW 3.5 mph5.6 kmh 29.93 in1013.5 mb - 0.00 in0.0 mm 0.76 in19.3 mm
11:20 PM 38.8°F3.8°C 37.5°F3.1°C 95% 3.5 mph NW5.6 kmh NW 5.8 mph9.3 kmh 29.93 in1013.5 mb - 0.00 in0.0 mm 0.76 in19.3 mm
11:25 PM 38.6°F3.7°C 37.3°F2.9°C 95% 3.5 mph NW5.6 kmh NW 4.6 mph7.4 kmh 29.93 in1013.5 mb - 0.00 in0.0 mm 0.76 in19.3 mm
11:30 PM 38.6°F3.7°C 37.3°F2.9°C 95% 2.3 mph NNW3.7 kmh NNW 3.5 mph5.6 kmh 29.94 in1013.9 mb - 0.00 in0.0 mm 0.76 in19.3 mm
11:35 PM 38.6°F3.7°C 37.3°F2.9°C 95% 2.3 mph NW3.7 kmh NW 4.6 mph7.4 kmh 29.94 in1013.9 mb - 0.00 in0.0 mm 0.76 in19.3 mm
11:40 PM 38.4°F3.6°C 37.1°F2.8°C 95% 3.5 mph NW5.6 kmh NW 4.6 mph7.4 kmh 29.93 in1013.5 mb - 0.00 in0.0 mm 0.76 in19.3 mm
11:45 PM 38.3°F3.5°C 37.0°F2.8°C 95% 3.5 mph NW5.6 kmh NW 5.8 mph9.3 kmh 29.93 in1013.5 mb - 0.00 in0.0 mm 0.76 in19.3 mm
11:50 PM 38.2°F3.4°C 36.9°F2.7°C 95% 2.3 mph NW3.7 kmh NW 4.6 mph7.4 kmh 29.94 in1013.9 mb - 0.00 in0.0 mm 0.76 in19.3 mm
11:55 PM 38.1°F3.4°C 36.8°F2.7°C 95% 3.5 mph NNW5.6 kmh NNW 4.6 mph7.4 kmh 29.94 in1013.9 mb - 0.01 in0.3 mm 0.77 in19.6 mm